This is the latest recevied weather packets stored in our database for station/object DL8TF-13. If no packets are shown the sender has not sent any weather packets the latest 10 day(s).
| Time | Temp. | Humidity | Pressure | Rain* | Wind** | Luminosity | Snow |
|---|---|---|---|---|---|---|---|
| 1777668815 | 15° C | 44% | 991 hPa | - | - | - | - |
| 1777668215 | 15.56° C | 42% | 992 hPa | - | - | - | - |
| 1777667615 | 16.11° C | 41% | 991 hPa | - | - | - | - |
| 1777666415 | 16.67° C | 40% | 991 hPa | - | - | - | - |
| 1777660414 | 21.67° C | 24% | 991 hPa | - | - | - | - |
| 1777659814 | 22.22° C | 23% | 991 hPa | - | - | - | - |
| 1777659214 | 22.78° C | 22% | 991 hPa | - | - | - | - |
| 1777658614 | 23.89° C | 22% | 991 hPa | - | - | - | - |
| 1777656213 | 25° C | 20% | 990 hPa | - | - | - | - |
| 1777653213 | 26.67° C | 18% | 991 hPa | - | - | - | - |
| 1777652613 | 26.67° C | 17% | 991 hPa | - | - | - | - |
| 1777652013 | 26.67° C | 16% | 991 hPa | - | - | - | - |
| 1777651413 | 26.67° C | 17% | 991 hPa | - | - | - | - |
| 1777650813 | 26.67° C | 15% | 991 hPa | - | - | - | - |
| 1777650213 | 27.22° C | 15% | 991 hPa | - | - | - | - |
| 1777649613 | 27.22° C | 16% | 991 hPa | - | - | - | - |
| 1777649013 | 27.78° C | 15% | 991 hPa | - | - | - | - |
| 1777648413 | 28.33° C | 15% | 991 hPa | - | - | - | - |
| 1777647813 | 28.89° C | 13% | 991 hPa | - | - | - | - |
| 1777647213 | 30° C | 14% | 991 hPa | - | - | - | - |
| 1777646012 | 33.33° C | 11% | 991 hPa | - | - | - | - |
| 1777645412 | 33.89° C | 10% | 991 hPa | - | - | - | - |
| 1777644812 | 31.67° C | 12% | 991 hPa | - | - | - | - |
| 1777644212 | 33.33° C | 10% | 992 hPa | - | - | - | - |
| 1777643612 | 37.22° C | 8% | 992 hPa | - | - | - | - |
* Rain since midnight (hover to see other rain measurements)
** Current wind speed in m/s (hover to see current wind gust speed)